HOURLY OBS INDEX

021

Northern Agricultural - Lower North

CLARE HIGH SCHOOL

Site: 021131
Alt: 395.0m
2km NW of CLARE


  Time     Wind        Temp  DP   Baro     Rain since   Rain past  Vis(m), Cloud(base in m), Weather
  local        km/h                         9am  last   hr   10m    
Thu 08:30    C  0/  0   1.8  1.7  1028.8    0.0   0.0   0.0   0.0   ----- 
Thu 09:00    C  0/  0   3.8  3.2  1029.0    0.0   0.0   0.0   0.0   ----- 
Thu 09:30    C  0/  0   7.1  3.9  1029.1    0.0   0.0   0.0   0.0   ----- 
Thu 10:00    E  2/  6   9.7  3.2  1029.3    0.0   0.0   0.0   0.0   ----- 
Thu 10:30  NNE  7/ 13  10.8  2.4  1029.2    0.0   0.0   0.0   0.0   ----- 
Thu 11:00   NE 11/ 17  11.0  1.0  1028.9    0.0   0.0   0.0   0.0   ----- 
Thu 11:30  ENE 11/ 15  11.6  2.9  1028.7    0.0   0.0   0.0   0.0   ----- 
Thu 12:00  ENE 11/ 15  12.0  2.5  1028.2    0.0   0.0   0.0   0.0   ----- 
Thu 12:30   NE 11/ 17  12.6  3.3  1027.9    0.0   0.0   0.0   0.0   ----- 
Thu 13:00  ENE 11/ 13  12.6  2.7  1027.5    0.0   0.0   0.0   0.0   ----- 
Thu 13:30  NNE  7/ 13  13.4  3.5  1027.3    0.0   0.0   0.0   0.0   ----- 

PORT PIRIE AERODROME AWS

Site: 021139
Alt: 12.0m
km of


  Time     Wind        Temp  DP   Baro     Rain since   Rain past  Vis(m), Cloud(base in m), Weather
  local        km/h                         9am  last   hr   10m    
Thu 08:30    E  7/  9   4.1  4.0  1029.3    0.0   0.0   0.0   0.0   ----- 
Thu 09:00    E  6/  7   6.0  5.9  1029.5    0.0   0.0   0.0   0.0   ----- 
Thu 09:30    E  6/  7   8.7  7.9  1029.7    0.0   0.0   0.0   0.0   ----- 
Thu 10:00  ESE  6/  7  10.7  6.3  1029.8    0.0   0.0   0.0   0.0   ----- 
Thu 10:30  NNW  4/  7  12.8  5.5  1029.7    0.0   0.0   0.0   0.0   ----- 
Thu 11:00  NNW  6/  9  13.6  4.2  1029.4    0.0   0.0   0.0   0.0   ----- 
Thu 11:30  WNW  6/  9  14.2  4.2  1029.2    0.0   0.0   0.0   0.0   ----- 
Thu 12:00    W  6/  9  15.0  3.2  1028.8    0.0   0.0   0.0   0.0   ----- 
Thu 12:30   NW  6/  7  15.2  3.0  1028.4    0.0   0.0   0.0   0.0   ----- 
Thu 13:00  WSW 11/ 13  15.2  4.0  1027.9    0.0   0.0   0.0   0.0   ----- 
Thu 13:30    S  7/  9  15.6  3.1  1027.6    0.0   0.0   0.0   0.0   ----- 

SNOWTOWN (RAYVILLE PARK)

Site: 021133
Alt: 109.1m
37km WNW of CLARE


  Time     Wind        Temp  DP   Baro     Rain since   Rain past  Vis(m), Cloud(base in m), Weather
  local        km/h                         9am  last   hr   10m    
Thu 08:30    N  2/  6   3.1  1.9  1029.4    0.0   0.0   0.0   0.0   ----- 
Thu 09:00    N  4/ 11   5.9  3.4  1029.7    0.0   0.0   0.0   0.0   ----- 
Thu 09:30    N  6/  9   6.8  3.4  1029.8    0.0   0.0   0.0   0.0   ----- 
Thu 10:00    N  4/  7   8.4  3.5  1029.9    0.0   0.0   0.0   0.0   ----- 
Thu 10:30    N  7/  9   9.5  3.3  1029.8    0.0   0.0   0.0   0.0   ----- 
Thu 11:00    N  9/ 13  11.2  3.7  1029.6    0.0   0.0   0.0   0.0   ----- 
Thu 11:30  NNE  7/ 11  12.6  2.5  1029.2    0.0   0.0   0.0   0.0   ----- 
Thu 12:00   NE  7/ 11  14.1  1.4  1028.7    0.0   0.0   0.0   0.0   ----- 
Thu 12:30  NNE  9/ 15  14.6  1.2  1028.3    0.0   0.0   0.0   0.0   ----- 
Thu 13:00    N  9/ 15  14.7 -1.8  1028.0    0.0   0.0   0.0   0.0   ----- 
Thu 13:30   NE 11/ 17  14.8  0.3  1027.8    0.0   0.0   0.0   0.0   -----